Time;durP1;ratioP1;P1;durP2;ratioP2;P2;SDS_P1;SDS_P2;PMS_P1;PMS_P2;Temp;Humidity;BMP_temperature;BMP_pressure;BME280_temperature;BME280_humidity;BME280_pressure;Samples;Min_cycle;Max_cycle;Signal;HPM_P1;HPM_P2
2024/02/08 00:01:09;;;;;;;57.05;20.85;;;;;;;4.92;100.00;100353.22;5284621;27;20024;-75
2024/02/08 00:03:39;;;;;;;70.22;24.25;;;;;;;4.85;100.00;100367.19;5273359;27;20073;-75
2024/02/08 00:06:10;;;;;;;69.30;23.40;;;;;;;4.89;100.00;100352.66;5282054;28;20110;-75
2024/02/08 00:08:41;;;;;;;66.18;23.88;;;;;;;4.86;100.00;100351.09;5285472;27;20435;-75
2024/02/08 00:11:11;;;;;;;53.78;22.25;;;;;;;4.83;100.00;100340.78;5281131;27;20027;-75
2024/02/08 00:13:42;;;;;;;51.97;21.08;;;;;;;4.86;100.00;100343.13;5280961;28;20024;-75
2024/02/08 00:16:12;;;;;;;58.83;21.23;;;;;;;4.92;100.00;100347.06;5275776;28;20668;-75
2024/02/08 00:18:44;;;;;;;56.00;20.05;;;;;;;4.85;100.00;100345.94;5273802;28;20031;-75
2024/02/08 00:21:14;;;;;;;48.55;19.48;;;;;;;4.85;100.00;100349.44;5282827;28;20545;-74
2024/02/08 00:23:45;;;;;;;52.88;20.40;;;;;;;4.82;100.00;100349.72;5280085;28;20111;-75
2024/02/08 00:26:17;;;;;;;55.42;21.65;;;;;;;4.86;100.00;100364.41;5280773;27;20485;-75
2024/02/08 00:28:47;;;;;;;56.67;21.83;;;;;;;4.91;100.00;100369.28;5276468;28;20023;-75
2024/02/08 00:31:19;;;;;;;54.75;19.13;;;;;;;4.94;100.00;100366.38;5282786;27;20031;-75
2024/02/08 00:33:49;;;;;;;56.88;20.15;;;;;;;4.95;100.00;100376.00;5283502;28;20031;-75
2024/02/08 00:36:21;;;;;;;54.15;20.48;;;;;;;4.96;100.00;100375.03;5278815;27;20085;-75
2024/02/08 00:38:51;;;;;;;57.00;20.70;;;;;;;4.96;100.00;100382.16;5282067;28;20112;-75
2024/02/08 00:41:23;;;;;;;56.83;21.77;;;;;;;4.97;100.00;100389.16;5278005;28;20218;-73
2024/02/08 00:43:53;;;;;;;59.33;22.75;;;;;;;4.93;100.00;100376.16;5275862;28;20103;-74
2024/02/08 00:46:24;;;;;;;53.85;22.13;;;;;;;4.94;100.00;100374.34;5279900;28;20110;-75
2024/02/08 00:48:54;;;;;;;54.80;21.65;;;;;;;4.95;100.00;100376.00;5280107;28;20051;-74
2024/02/08 00:51:25;;;;;;;54.75;22.52;;;;;;;5.00;100.00;100371.09;5280925;28;20028;-74
2024/02/08 00:53:59;;;;;;;57.53;21.05;;;;;;;4.99;100.00;100373.91;5278763;28;20051;-74
2024/02/08 00:56:29;;;;;;;52.95;22.35;;;;;;;5.02;100.00;100381.59;5281598;27;20533;-74
2024/02/08 00:59:00;;;;;;;52.67;20.55;;;;;;;5.01;100.00;100377.25;5280046;28;20030;-74
2024/02/08 01:01:31;;;;;;;49.65;20.02;;;;;;;5.02;100.00;100370.94;5281571;28;20023;-74
2024/02/08 01:04:02;;;;;;;58.28;22.02;;;;;;;5.03;100.00;100362.84;5276641;28;20065;-74
2024/02/08 01:06:34;;;;;;;60.33;21.45;;;;;;;5.06;100.00;100364.38;5280871;28;20476;-74
2024/02/08 01:09:04;;;;;;;52.80;22.35;;;;;;;5.07;100.00;100363.38;5277954;28;20023;-74
2024/02/08 01:11:35;;;;;;;61.63;22.30;;;;;;;5.08;100.00;100370.41;5281902;28;20035;-74
2024/02/08 01:14:05;;;;;;;54.15;21.63;;;;;;;5.07;100.00;100360.72;5282576;28;20028;-73
2024/02/08 01:16:45;;;;;;;64.13;22.60;;;;;;;5.07;100.00;100366.03;5281682;28;20111;-74
2024/02/08 01:19:22;;;;;;;66.63;24.00;;;;;;;5.06;100.00;100367.88;5279663;28;20126;-74
2024/02/08 01:21:52;;;;;;;58.15;22.70;;;;;;;5.04;100.00;100364.53;5281624;28;20027;-74
2024/02/08 01:24:23;;;;;;;60.10;23.08;;;;;;;5.05;100.00;100370.69;5279603;28;20069;-74
2024/02/08 01:26:56;;;;;;;53.38;23.00;;;;;;;5.00;100.00;100360.47;5280613;28;20024;-74
2024/02/08 01:29:27;;;;;;;59.80;22.48;;;;;;;5.03;100.00;100351.38;5275646;28;20028;-73
2024/02/08 01:31:57;;;;;;;56.65;22.58;;;;;;;5.05;100.00;100347.59;5279319;28;20030;-74
2024/02/08 01:34:30;;;;;;;61.75;24.50;;;;;;;5.01;100.00;100348.84;5287447;27;20559;-74
2024/02/08 01:37:03;;;;;;;62.20;24.75;;;;;;;5.01;100.00;100340.88;5282245;28;20107;-74
2024/02/08 01:39:34;;;;;;;63.42;25.23;;;;;;;5.02;100.00;100339.06;5279070;28;20024;-74
2024/02/08 01:42:11;;;;;;;55.05;23.70;;;;;;;4.97;100.00;100334.19;5274672;28;20083;-74
2024/02/08 01:44:47;;;;;;;66.05;24.08;;;;;;;4.96;100.00;100326.34;5278222;28;20426;-74
2024/02/08 01:47:17;;;;;;;63.95;25.30;;;;;;;4.95;100.00;100320.19;5279490;28;20485;-73
2024/02/08 01:49:48;;;;;;;61.25;25.67;;;;;;;4.96;100.00;100316.53;5276502;28;20027;-74
2024/02/08 01:52:19;;;;;;;66.13;24.55;;;;;;;4.98;100.00;100319.06;5280502;27;20430;-74
2024/02/08 01:54:49;;;;;;;65.93;25.95;;;;;;;4.98;100.00;100313.75;5291089;27;20031;-74
2024/02/08 01:57:20;;;;;;;58.78;24.38;;;;;;;4.93;100.00;100303.56;5279141;28;20421;-74
2024/02/08 01:59:52;;;;;;;69.55;25.10;;;;;;;4.88;100.00;100300.50;5286545;27;20384;-74
2024/02/08 02:02:27;;;;;;;65.05;25.60;;;;;;;4.89;100.00;100288.88;5283108;28;20400;-74
2024/02/08 02:04:57;;;;;;;72.10;24.83;;;;;;;4.91;100.00;100293.03;5282476;27;20423;-74
2024/02/08 02:07:41;;;;;;;72.60;26.77;;;;;;;4.91;100.00;100303.66;5286512;27;20054;-74
2024/02/08 02:10:11;;;;;;;60.47;22.80;;;;;;;4.91;100.00;100310.81;5282278;27;20028;-74
2024/02/08 02:12:45;;;;;;;58.60;23.80;;;;;;;4.93;100.00;100314.19;5280218;28;20051;-74
2024/02/08 02:15:17;;;;;;;65.53;23.48;;;;;;;4.92;100.00;100313.34;5285973;27;20028;-74
2024/02/08 02:17:47;;;;;;;62.00;22.73;;;;;;;4.94;100.00;100316.69;5285545;28;20031;-73
2024/02/08 02:20:18;;;;;;;60.55;23.85;;;;;;;4.96;100.00;100310.38;5280941;28;20050;-74
2024/02/08 02:22:51;;;;;;;67.47;24.52;;;;;;;4.96;100.00;100313.03;5283579;28;20088;-74
2024/02/08 02:25:21;;;;;;;69.53;27.05;;;;;;;4.92;100.00;100297.41;5283142;28;20056;-74
2024/02/08 02:28:00;;;;;;;77.10;27.33;;;;;;;4.95;100.00;100309.56;5280474;28;20075;-73
2024/02/08 02:30:34;;;;;;;67.53;23.92;;;;;;;4.97;100.00;100309.41;5278602;28;20024;-74
2024/02/08 02:33:06;;;;;;;67.45;26.80;;;;;;;4.96;100.00;100299.75;5279962;28;20043;-74
2024/02/08 02:35:36;;;;;;;67.72;25.90;;;;;;;4.94;100.00;100294.59;5287098;27;20061;-74
2024/02/08 02:38:12;;;;;;;64.60;24.13;;;;;;;4.92;100.00;100289.44;5281902;28;20055;-73
2024/02/08 02:40:44;;;;;;;70.93;26.00;;;;;;;4.94;100.00;100283.97;5281513;28;20563;-74
2024/02/08 02:43:14;;;;;;;67.63;25.08;;;;;;;4.95;100.00;100280.31;5284419;27;20031;-73
2024/02/08 02:45:45;;;;;;;68.70;26.90;;;;;;;4.94;100.00;100279.47;5280512;27;20027;-74
2024/02/08 02:48:15;;;;;;;71.88;25.45;;;;;;;4.92;100.00;100280.63;5283668;28;20028;-74
2024/02/08 02:50:51;;;;;;;76.18;25.30;;;;;;;4.91;100.00;100285.06;5280890;27;20042;-74
2024/02/08 02:53:24;;;;;;;68.40;23.23;;;;;;;4.92;100.00;100280.63;5282894;28;20031;-73
2024/02/08 02:55:58;;;;;;;69.93;24.30;;;;;;;4.93;100.00;100283.13;5282904;28;20035;-73
2024/02/08 02:58:31;;;;;;;75.75;25.85;;;;;;;4.96;100.00;100274.00;5281131;28;20087;-73
2024/02/08 03:01:09;;;;;;;76.37;25.03;;;;;;;4.97;100.00;100272.19;5280996;28;20023;-73
2024/02/08 03:03:40;;;;;;;67.30;24.20;;;;;;;4.97;100.00;100280.16;5284794;28;20058;-73
2024/02/08 03:06:26;;;;;;;75.63;24.20;;;;;;;4.98;100.00;100271.22;5281990;28;20034;-74
2024/02/08 03:08:57;;;;;;;81.38;26.15;;;;;;;4.99;100.00;100272.91;5276321;28;20111;-74
2024/02/08 03:11:28;;;;;;;84.80;27.20;;;;;;;4.97;100.00;100277.50;5277687;27;20027;-74
2024/02/08 03:13:59;;;;;;;70.30;26.52;;;;;;;4.95;100.00;100272.34;5286266;27;20023;-74
2024/02/08 03:16:36;;;;;;;78.45;26.80;;;;;;;4.97;100.00;100258.88;5286504;27;20039;-74
2024/02/08 03:19:07;;;;;;;81.00;26.63;;;;;;;4.97;100.00;100264.22;5277485;27;20038;-74
2024/02/08 03:21:40;;;;;;;75.78;26.80;;;;;;;4.99;100.00;100264.91;5285473;27;20031;-74
2024/02/08 03:24:11;;;;;;;73.25;27.42;;;;;;;4.98;100.00;100260.59;5281595;27;20039;-74
2024/02/08 03:26:48;;;;;;;86.38;27.55;;;;;;;4.98;100.00;100257.94;5285070;27;20027;-74
2024/02/08 03:29:23;;;;;;;85.47;27.50;;;;;;;4.93;100.00;100269.84;5284669;27;20560;-73
2024/02/08 03:32:07;;;;;;;77.43;26.67;;;;;;;4.96;100.00;100266.03;5276443;27;20106;-74
2024/02/08 03:34:46;;;;;;;77.32;26.85;;;;;;;5.01;100.00;100266.44;5282501;27;20027;-73
2024/02/08 03:37:16;;;;;;;86.05;28.83;;;;;;;5.02;100.00;100252.19;5279640;28;20388;-74
2024/02/08 03:39:47;;;;;;;87.18;27.05;;;;;;;5.00;100.00;100247.97;5280983;27;20027;-74
2024/02/08 03:42:18;;;;;;;73.05;24.67;;;;;;;5.02;100.00;100246.88;5279348;27;20023;-74
2024/02/08 03:44:50;;;;;;;88.13;27.38;;;;;;;5.00;100.00;100253.28;5284262;27;20395;-74
2024/02/08 03:47:21;;;;;;;87.38;29.75;;;;;;;5.01;100.00;100244.34;5283880;28;20035;-74
2024/02/08 03:49:52;;;;;;;98.75;31.65;;;;;;;5.00;100.00;100242.66;5283266;27;20072;-74
2024/02/08 03:52:23;;;;;;;87.30;27.67;;;;;;;5.00;100.00;100240.00;5281484;28;20478;-74
2024/02/08 03:54:54;;;;;;;92.10;28.88;;;;;;;4.97;100.00;100225.19;5286860;27;20035;-74
2024/02/08 03:57:24;;;;;;;88.60;29.55;;;;;;;4.94;100.00;100221.00;5281422;27;20042;-74
2024/02/08 03:59:54;;;;;;;88.30;27.88;;;;;;;4.92;100.00;100220.31;5285718;27;20035;-74
2024/02/08 04:02:26;;;;;;;88.95;28.38;;;;;;;4.93;100.00;100221.16;5277321;27;20115;-74
2024/02/08 04:05:05;;;;;;;88.47;29.00;;;;;;;4.92;100.00;100207.03;5288371;27;20422;-75
2024/02/08 04:07:56;;;;;;;87.53;28.55;;;;;;;4.91;100.00;100194.69;5283634;27;20035;-74
2024/02/08 04:55:35;;;;;;;111.70;31.20;;;;;;;4.93;100.00;100190.09;5283459;28;20015;-74
2024/02/08 04:58:05;;;;;;;111.57;33.22;;;;;;;4.96;100.00;100180.13;5280250;28;20024;-74
2024/02/08 05:00:36;;;;;;;127.43;34.13;;;;;;;4.96;100.00;100170.34;5280503;28;20033;-75
2024/02/08 05:03:06;;;;;;;121.35;33.92;;;;;;;5.01;100.00;100175.22;5278802;28;20469;-74
2024/02/08 05:05:43;;;;;;;124.78;36.15;;;;;;;5.00;100.00;100173.53;5279877;28;20519;-75
2024/02/08 05:08:15;;;;;;;131.02;35.05;;;;;;;4.98;100.00;100176.34;5282656;28;20137;-75
2024/02/08 05:10:46;;;;;;;123.43;35.17;;;;;;;4.98;100.00;100163.06;5280483;28;20024;-75
2024/02/08 05:13:17;;;;;;;122.47;36.10;;;;;;;4.99;100.00;100163.91;5282066;28;20034;-74
2024/02/08 05:15:49;;;;;;;108.07;31.00;;;;;;;5.00;100.00;100168.22;5278192;28;20106;-75
2024/02/08 05:18:22;;;;;;;112.85;33.78;;;;;;;4.94;100.00;100154.53;5280713;28;20035;-75
2024/02/08 05:20:52;;;;;;;114.97;30.67;;;;;;;4.93;100.00;100149.38;5282851;28;20024;-75
2024/02/08 05:23:25;;;;;;;120.28;35.55;;;;;;;4.91;100.00;100138.88;5277458;28;20054;-75
2024/02/08 05:25:56;;;;;;;113.55;33.20;;;;;;;4.94;100.00;100138.59;5288207;28;20488;-75
2024/02/08 05:28:28;;;;;;;104.28;31.75;;;;;;;4.91;100.00;100133.56;5286495;27;20389;-75
2024/02/08 05:30:58;;;;;;;93.03;28.23;;;;;;;4.89;100.00;100124.91;5286072;27;20019;-75
2024/02/08 05:33:29;;;;;;;102.38;30.90;;;;;;;4.90;100.00;100126.56;5284082;28;20023;-75
2024/02/08 05:36:06;;;;;;;104.35;31.40;;;;;;;4.90;100.00;100120.44;5280692;27;20031;-75
2024/02/08 05:38:40;;;;;;;112.07;32.97;;;;;;;4.89;100.00;100127.56;5286999;27;20360;-75
2024/02/08 05:41:22;;;;;;;100.63;30.80;;;;;;;4.87;100.00;100118.03;5283882;27;20051;-75
2024/02/08 05:43:52;;;;;;;101.32;31.25;;;;;;;4.90;100.00;100115.09;5286160;27;20169;-75
2024/02/08 05:46:28;;;;;;;109.35;30.92;;;;;;;4.92;100.00;100108.69;5284904;27;20114;-75
2024/02/08 05:49:11;;;;;;;113.10;32.72;;;;;;;4.90;100.00;100107.13;5282123;27;20102;-75
2024/02/08 05:51:51;;;;;;;111.38;30.15;;;;;;;4.93;100.00;100105.03;5286335;27;20473;-75
2024/02/08 05:54:31;;;;;;;101.38;28.13;;;;;;;4.94;100.00;100109.34;5287015;28;20048;-75
2024/02/08 05:57:03;;;;;;;93.00;27.02;;;;;;;4.94;100.00;100111.19;5283921;27;20036;-74
2024/02/08 05:59:36;;;;;;;102.32;31.33;;;;;;;4.94;100.00;100101.38;5282538;27;20404;-74
2024/02/08 06:02:14;;;;;;;99.38;27.33;;;;;;;4.93;100.00;100105.03;5282011;27;20131;-75
2024/02/08 06:04:50;;;;;;;96.70;27.25;;;;;;;4.92;100.00;100098.03;5286675;28;20063;-75
2024/02/08 06:07:20;;;;;;;89.45;27.13;;;;;;;4.94;100.00;100100.53;5283621;28;20567;-75
2024/02/08 06:10:07;;;;;;;111.30;29.50;;;;;;;4.94;100.00;100095.22;5283695;27;20027;-75
2024/02/08 06:12:43;;;;;;;97.22;27.70;;;;;;;4.97;100.00;100088.75;5278147;28;20028;-74
2024/02/08 06:15:21;;;;;;;98.43;26.70;;;;;;;4.91;100.00;100088.38;5284447;27;20027;-74
2024/02/08 06:17:57;;;;;;;93.65;26.98;;;;;;;4.93;100.00;100090.91;5284520;27;20031;-75
2024/02/08 06:20:35;;;;;;;91.03;25.38;;;;;;;4.94;100.00;100090.75;5281828;28;20028;-75
2024/02/08 06:28:53;;;;;;;81.78;25.27;;;;;;;4.99;100.00;100086.81;5286334;28;20035;-75
2024/02/08 06:31:29;;;;;;;100.50;26.00;;;;;;;5.01;100.00;100087.50;5281016;28;20115;-74
2024/02/08 06:36:49;;;;;;;101.70;27.98;;;;;;;5.00;100.00;100088.47;5280288;28;20027;-75
2024/02/08 06:39:23;;;;;;;97.35;25.67;;;;;;;4.99;100.00;100076.19;5283715;28;20136;-74
2024/02/08 06:42:29;;;;;;;92.45;26.13;;;;;;;5.00;100.00;100069.88;5285240;28;20388;-75
2024/02/08 06:45:24;;;;;;;89.40;24.70;;;;;;;5.09;100.00;100068.97;5282443;27;20034;-75
2024/02/08 06:48:14;;;;;;;;;;;;;;;5.09;100.00;100068.97;5277052;27;20036;-75
2024/02/08 07:37:17;;;;;;;98.22;29.10;;;;;;;5.10;100.00;100065.31;5283852;27;20028;-75
2024/02/08 07:41:58;;;;;;;93.22;24.27;;;;;;;5.18;100.00;99997.13;5294464;27;20020;-74
2024/02/08 07:44:34;;;;;;;90.32;23.30;;;;;;;5.21;100.00;99988.00;5287771;27;20038;-75
2024/02/08 07:47:05;;;;;;;89.55;24.25;;;;;;;5.22;100.00;99986.16;5294368;27;20035;-75
2024/02/08 07:49:42;;;;;;;88.25;22.70;;;;;;;5.25;100.00;99975.22;5279487;27;20028;-74
2024/02/08 07:52:19;;;;;;;84.45;21.23;;;;;;;5.20;100.00;99973.84;5286869;27;20082;-75
2024/02/08 07:54:56;;;;;;;79.07;20.88;;;;;;;5.27;100.00;99971.44;5287023;27;20028;-75
2024/02/08 07:57:31;;;;;;;85.50;21.27;;;;;;;5.26;100.00;99971.56;5277095;28;20081;-75
2024/02/08 08:00:02;;;;;;;80.53;21.13;;;;;;;5.25;100.00;99962.75;5284260;27;20032;-75
2024/02/08 08:02:36;;;;;;;76.88;21.88;;;;;;;5.33;100.00;99964.66;5291369;27;20381;-75
2024/02/08 08:05:14;;;;;;;77.85;22.10;;;;;;;5.31;100.00;99961.31;5281167;27;20031;-75
2024/02/08 08:07:45;;;;;;;84.63;21.40;;;;;;;5.34;100.00;99948.56;5287749;27;20051;-75
2024/02/08 08:10:25;;;;;;;93.32;21.73;;;;;;;5.35;100.00;99946.72;5276156;28;20134;-75
2024/02/08 08:12:56;;;;;;;80.50;20.63;;;;;;;5.36;100.00;99945.72;5293138;27;20030;-75
2024/02/08 08:15:26;;;;;;;69.03;18.63;;;;;;;5.39;100.00;99940.09;5291927;27;20409;-74
2024/02/08 08:17:59;;;;;;;78.18;21.10;;;;;;;5.42;100.00;99940.66;5293039;27;20065;-74
2024/02/08 08:23:25;;;;;;;72.72;19.30;;;;;;;5.43;100.00;99931.66;5283139;27;20028;-75
2024/02/08 08:26:00;;;;;;;74.32;21.33;;;;;;;5.45;100.00;99931.50;5294653;27;20036;-75
2024/02/08 08:28:38;;;;;;;72.97;20.08;;;;;;;5.43;100.00;99925.50;5285755;27;20027;-75
2024/02/08 08:31:34;;;;;;;68.68;19.52;;;;;;;5.48;100.00;99925.06;5275336;28;20096;-75
2024/02/08 08:35:18;;;;;;;74.18;20.40;;;;;;;5.50;100.00;99915.06;5284164;28;20054;-74
2024/02/08 08:37:02;;;;;;;73.00;19.85;;;;;;;5.48;100.00;99917.06;5278154;27;20034;-75
2024/02/08 08:40:20;;;;;;;70.40;18.42;;;;;;;5.48;100.00;99909.09;5279926;27;20665;-75
2024/02/08 08:42:39;;;;;;;64.70;20.83;;;;;;;5.52;100.00;99915.75;5281995;28;20035;-76
2024/02/08 08:45:10;;;;;;;68.32;19.08;;;;;;;5.44;100.00;99911.22;5283381;28;20031;-75
2024/02/08 08:47:40;;;;;;;66.32;18.33;;;;;;;5.49;100.00;99910.75;5279601;27;20538;-76
2024/02/08 08:53:07;;;;;;;61.78;18.90;;;;;;;5.48;100.00;99891.31;5279365;28;20038;-75
2024/02/08 08:55:39;;;;;;;58.55;17.90;;;;;;;5.53;100.00;99883.69;5285885;28;20038;-75
2024/02/08 08:58:12;;;;;;;63.65;18.33;;;;;;;5.51;100.00;99868.84;5269471;28;20500;-75
2024/02/08 09:00:47;;;;;;;63.10;16.63;;;;;;;5.55;100.00;99870.22;5284618;27;20664;-76
2024/02/08 09:03:29;;;;;;;66.80;18.80;;;;;;;5.57;100.00;99857.56;5294454;27;20080;-75
2024/02/08 09:06:02;;;;;;;55.95;17.70;;;;;;;5.59;100.00;99851.13;5290111;27;20115;-75
2024/02/08 09:08:41;;;;;;;57.08;17.08;;;;;;;5.60;100.00;99838.66;5289319;27;20036;-75
2024/02/08 09:11:14;;;;;;;59.05;15.63;;;;;;;5.59;100.00;99826.34;5281144;27;20015;-75
2024/02/08 09:13:51;;;;;;;53.25;15.55;;;;;;;5.64;100.00;99824.88;5284392;27;20385;-75
2024/02/08 09:21:36;;;;;;;48.25;15.82;;;;;;;5.68;100.00;99812.09;5287575;27;20606;-75
2024/02/08 09:24:17;;;;;;;53.00;14.23;;;;;;;5.71;100.00;99809.09;5291773;27;20031;-75
2024/02/08 09:26:48;;;;;;;52.47;15.32;;;;;;;5.73;100.00;99801.78;5291253;27;20451;-75
2024/02/08 09:29:23;;;;;;;40.88;13.07;;;;;;;5.67;100.00;99791.75;5285684;27;20032;-75
2024/02/08 09:31:57;;;;;;;46.25;13.45;;;;;;;5.74;100.00;99784.81;5281871;27;20036;-75
2024/02/08 09:34:40;;;;;;;48.30;14.00;;;;;;;5.79;100.00;99771.88;5282028;27;20102;-75
2024/02/08 09:37:10;;;;;;;44.53;13.85;;;;;;;5.75;100.00;99770.53;5286019;27;20118;-75
2024/02/08 09:39:53;;;;;;;45.35;12.43;;;;;;;5.75;100.00;99764.38;5285097;27;20441;-75
2024/02/08 09:42:26;;;;;;;47.75;14.55;;;;;;;5.70;100.00;99767.50;5283228;28;20528;-75
2024/02/08 09:45:13;;;;;;;44.30;13.20;;;;;;;5.77;100.00;99759.69;5283798;27;20081;-75
2024/02/08 09:47:54;;;;;;;47.53;13.43;;;;;;;5.78;100.00;99767.53;5283056;27;20107;-75
2024/02/08 09:50:35;;;;;;;40.67;13.65;;;;;;;5.77;100.00;99765.03;5282792;28;20020;-75
2024/02/08 09:53:15;;;;;;;43.00;12.80;;;;;;;5.82;100.00;99774.19;5287653;27;20024;-75
2024/02/08 09:55:55;;;;;;;39.28;11.50;;;;;;;5.88;100.00;99783.38;5287692;27;20026;-75
2024/02/08 09:58:33;;;;;;;43.80;13.60;;;;;;;5.80;100.00;99783.34;5285880;28;20035;-75
2024/02/08 10:01:22;;;;;;;48.20;16.02;;;;;;;5.83;100.00;99786.53;5278133;28;20036;-76
2024/02/08 10:04:04;;;;;;;38.72;13.32;;;;;;;5.81;100.00;99790.31;5287317;27;20023;-75
2024/02/08 10:06:45;;;;;;;39.70;11.82;;;;;;;5.87;100.00;99768.38;5282183;27;20023;-75
2024/02/08 10:12:08;;;;;;;39.25;12.80;;;;;;;5.96;100.00;99762.13;5287952;27;20047;-75
2024/02/08 10:14:51;;;;;;;40.63;12.07;;;;;;;6.01;100.00;99777.59;5283868;27;20024;-75
2024/02/08 10:17:40;;;;;;;38.55;12.65;;;;;;;6.03;100.00;99765.81;5289682;27;20019;-75
2024/02/08 10:22:57;;;;;;;32.58;10.90;;;;;;;6.11;100.00;99768.47;5278280;28;20044;-75
2024/02/08 10:28:21;;;;;;;42.97;11.10;;;;;;;6.14;100.00;99728.22;5281733;28;20081;-75
2024/02/08 10:30:59;;;;;;;34.63;11.55;;;;;;;6.18;100.00;99716.25;5280634;28;20024;-75
2024/02/08 10:33:37;;;;;;;38.97;12.25;;;;;;;6.23;100.00;99732.56;5281634;28;20050;-75
2024/02/08 10:36:15;;;;;;;37.63;11.73;;;;;;;6.35;100.00;99729.56;5283102;27;20024;-75
2024/02/08 10:38:55;;;;;;;34.25;10.82;;;;;;;6.45;100.00;99719.56;5285373;27;20030;-75
2024/02/08 10:41:44;;;;;;;35.30;12.90;;;;;;;6.45;100.00;99715.06;5280883;27;20023;-75
2024/02/08 10:44:22;;;;;;;36.70;11.73;;;;;;;6.52;100.00;99714.38;5277916;28;20016;-74
2024/02/08 10:46:57;;;;;;;31.63;10.93;;;;;;;6.49;100.00;99716.41;5281843;28;20016;-75
2024/02/08 10:49:31;;;;;;;31.17;11.18;;;;;;;6.47;100.00;99718.38;5278240;28;20106;-75
2024/02/08 10:52:02;;;;;;;34.08;11.10;;;;;;;6.46;100.00;99710.56;5283438;27;20125;-75
2024/02/08 10:54:42;;;;;;;33.28;11.27;;;;;;;6.52;100.00;99709.06;5273838;28;20023;-75
2024/02/08 11:00:49;;;;;;;33.03;11.07;;;;;;;6.54;100.00;99683.09;5273865;28;20378;-75
2024/02/08 11:03:00;;;;;;;35.00;11.43;;;;;;;6.61;100.00;99682.25;5279944;28;20052;-75
2024/02/08 11:08:24;;;;;;;32.47;10.75;;;;;;;6.37;100.00;99676.94;5283395;28;20039;-75
2024/02/08 11:10:58;;;;;;;30.05;10.85;;;;;;;6.47;100.00;99667.75;5285082;27;20020;-75
2024/02/08 11:13:37;;;;;;;31.65;11.38;;;;;;;6.56;100.00;99667.75;5279365;28;20032;-75
2024/02/08 11:16:20;;;;;;;30.25;10.75;;;;;;;6.42;100.00;99656.78;5282093;27;20534;-75
2024/02/08 11:18:54;;;;;;;30.25;10.88;;;;;;;6.43;100.00;99639.00;5278159;28;20511;-75
2024/02/08 11:21:42;;;;;;;32.20;10.68;;;;;;;6.44;100.00;99632.66;5286211;27;20482;-75
2024/02/08 11:24:28;;;;;;;30.80;11.15;;;;;;;6.41;100.00;99617.81;5283440;27;20028;-75
2024/02/08 11:27:01;;;;;;;28.02;10.38;;;;;;;6.42;100.00;99616.81;5279099;28;20496;-75
2024/02/08 11:29:45;;;;;;;37.83;12.63;;;;;;;6.39;100.00;99603.84;5282910;27;20023;-75
2024/02/08 11:32:16;;;;;;;33.70;11.38;;;;;;;6.52;100.00;99597.97;5279367;27;20098;-75
2024/02/08 11:34:54;;;;;;;38.60;12.07;;;;;;;6.40;100.00;99602.84;5284190;27;20027;-75
2024/02/08 11:37:29;;;;;;;33.33;11.18;;;;;;;6.37;100.00;99599.69;5278656;27;20495;-76
2024/02/08 11:40:01;;;;;;;31.55;11.85;;;;;;;6.38;100.00;99588.88;5275704;27;20615;-73
2024/02/08 11:42:35;;;;;;;28.48;11.15;;;;;;;6.44;100.00;99582.03;5282032;28;20485;-73
2024/02/08 11:45:08;;;;;;;29.52;10.77;;;;;;;6.46;100.00;99578.19;5287658;27;20664;-75
2024/02/08 11:47:41;;;;;;;35.33;12.02;;;;;;;6.56;100.00;99577.16;5279894;28;20019;-75
2024/02/08 11:50:22;;;;;;;35.47;12.80;;;;;;;6.59;100.00;99579.50;5275674;28;20041;-75
2024/02/08 11:52:55;;;;;;;33.30;12.75;;;;;;;6.60;100.00;99578.50;5274782;28;20043;-76
2024/02/08 11:55:28;;;;;;;34.30;12.40;;;;;;;6.55;100.00;99560.34;5279390;28;20106;-76
2024/02/08 11:58:05;;;;;;;33.15;12.45;;;;;;;6.58;100.00;99541.38;5281135;28;20050;-75
2024/02/08 12:00:48;;;;;;;30.25;11.52;;;;;;;6.62;100.00;99545.31;5273599;28;20024;-76
2024/02/08 12:03:20;;;;;;;30.52;11.57;;;;;;;6.61;100.00;99537.50;5281634;28;20016;-76
2024/02/08 12:05:58;;;;;;;31.83;11.50;;;;;;;6.62;100.00;99533.84;5280088;28;20016;-75
2024/02/08 12:08:28;;;;;;;28.13;11.55;;;;;;;6.67;100.00;99528.81;5277702;28;20031;-76
2024/02/08 12:11:01;;;;;;;33.40;11.48;;;;;;;6.69;100.00;99532.16;5279670;28;20027;-76
2024/02/08 12:13:38;;;;;;;29.08;10.63;;;;;;;6.68;100.00;99514.50;5277807;27;20566;-76
2024/02/08 12:16:11;;;;;;;31.13;11.40;;;;;;;6.73;100.00;99506.81;5281576;27;20026;-76
2024/02/08 12:18:42;;;;;;;28.58;11.35;;;;;;;6.77;100.00;99512.63;5278668;28;20027;-76
2024/02/08 12:21:17;;;;;;;30.55;11.20;;;;;;;6.76;100.00;99511.78;5276323;28;20073;-74
2024/02/08 12:23:53;;;;;;;30.00;11.00;;;;;;;6.75;100.00;99494.97;5275024;28;20537;-74
2024/02/08 12:26:26;;;;;;;29.50;10.45;;;;;;;6.74;100.00;99495.16;5281544;28;20019;-73
2024/02/08 12:29:02;;;;;;;30.23;11.65;;;;;;;6.81;100.00;99485.44;5279261;28;20126;-73
2024/02/08 12:31:34;;;;;;;33.75;12.63;;;;;;;6.88;100.00;99477.59;5278047;27;20020;-74
2024/02/08 12:34:04;;;;;;;34.15;12.80;;;;;;;6.97;100.00;99473.84;5274469;27;20020;-74
2024/02/08 12:36:35;;;;;;;30.80;12.80;;;;;;;6.99;100.00;99466.50;5283151;27;20057;-74
2024/02/08 12:39:17;;;;;;;31.27;12.50;;;;;;;7.08;100.00;99468.13;5280223;27;20024;-74
2024/02/08 12:41:50;;;;;;;38.80;13.55;;;;;;;7.11;100.00;99467.75;5279084;28;20031;-74
2024/02/08 12:44:20;;;;;;;34.35;12.80;;;;;;;7.17;100.00;99466.22;5274935;27;20489;-74
2024/02/08 12:46:57;;;;;;;39.10;14.32;;;;;;;7.21;100.00;99452.34;5279993;28;20106;-74
2024/02/08 12:49:28;;;;;;;35.78;13.68;;;;;;;7.22;100.00;99450.50;5280191;28;20106;-75
2024/02/08 12:52:00;;;;;;;35.95;14.27;;;;;;;7.23;100.00;99444.19;5285607;28;20094;-75
2024/02/08 12:54:32;;;;;;;37.05;13.77;;;;;;;7.30;100.00;99426.44;5280050;27;20023;-72
2024/02/08 12:57:08;;;;;;;31.92;11.95;;;;;;;7.30;100.00;99413.09;5281901;28;20035;-72
2024/02/08 12:59:41;;;;;;;39.20;14.30;;;;;;;7.30;100.00;99399.75;5283246;28;20039;-73
2024/02/08 13:02:18;;;;;;;37.03;14.18;;;;;;;7.40;100.00;99396.84;5280318;28;20028;-73
2024/02/08 13:04:54;;;;;;;31.58;13.68;;;;;;;7.50;100.00;99379.56;5281536;28;20019;-73
2024/02/08 13:07:25;;;;;;;32.25;12.73;;;;;;;7.53;100.00;99378.38;5281294;28;20031;-73
2024/02/08 13:10:03;;;;;;;32.58;13.65;;;;;;;7.60;100.00;99368.63;5279137;28;20042;-73
2024/02/08 13:12:37;;;;;;;36.17;13.35;;;;;;;7.58;100.00;99353.78;5286446;27;20047;-73
2024/02/08 13:15:10;;;;;;;32.17;12.85;;;;;;;7.60;100.00;99347.28;5278040;28;20063;-73
2024/02/08 13:17:41;;;;;;;36.15;14.80;;;;;;;7.58;100.00;99333.28;5283843;28;20053;-73
2024/02/08 13:20:11;;;;;;;36.15;14.05;;;;;;;7.51;100.00;99333.19;5282432;28;20031;-73
2024/02/08 13:22:45;;;;;;;38.05;14.95;;;;;;;7.52;100.00;99334.00;5280628;28;20027;-73
2024/02/08 13:25:16;;;;;;;36.88;14.90;;;;;;;7.57;100.00;99331.59;5285545;28;20027;-73
2024/02/08 13:27:49;;;;;;;36.78;14.48;;;;;;;7.47;100.00;99331.06;5281022;28;20089;-73
2024/02/08 13:30:22;;;;;;;38.45;15.82;;;;;;;7.53;100.00;99322.34;5278422;28;20016;-73
2024/02/08 13:32:53;;;;;;;39.47;15.57;;;;;;;7.59;100.00;99310.09;5283466;28;20370;-73
2024/02/08 13:35:25;;;;;;;39.67;16.60;;;;;;;7.69;100.00;99300.78;5278062;28;20019;-73
2024/02/08 13:37:58;;;;;;;44.30;16.55;;;;;;;7.72;100.00;99311.09;5283345;28;20027;-73
2024/02/08 13:40:29;;;;;;;42.15;17.00;;;;;;;7.79;100.00;99303.19;5281005;28;20023;-73
2024/02/08 13:42:59;;;;;;;44.45;16.52;;;;;;;7.73;100.00;99296.75;5281100;28;20027;-73
2024/02/08 13:45:30;;;;;;;42.25;16.00;;;;;;;7.78;100.00;99286.34;5284991;27;20016;-73
2024/02/08 13:48:00;;;;;;;49.65;17.75;;;;;;;7.85;100.00;99289.06;5283457;28;20080;-73
2024/02/08 13:50:33;;;;;;;39.20;15.38;;;;;;;7.85;100.00;99286.41;5282904;27;20051;-73
2024/02/08 13:53:03;;;;;;;43.70;17.60;;;;;;;7.93;100.00;99283.66;5286036;28;20051;-73